Terminal Aerodrome Forecast
Issued by NWS

Home | Current Version | Previous Version | Text Only | Print | Product List | Glossary On
Versions: 1 2 3 4 5 6 7 8 9 10 11 12
000
FTUS42 KTBW 221100
TAFLAL
TAF
KLAL 221133Z 2212/2312 VRB05KT 4SM -RA BR FEW025 SCT060 BKN250
     FM221600 19010KT P6SM SCT020 BKN040 OVC100
     FM230000 18004KT 6SM BR SCT020 BKN100=

USA.gov is the U.S. government's official web portal to all federal, state and local government web resources and services.